createdAt,value
2022-08-24T00:03:57.653Z,4.75
2022-08-24T00:09:01.049Z,5.38
2022-08-24T00:14:02.471Z,5.65
2022-08-24T00:19:04.737Z,4.85
2022-08-24T00:24:06.247Z,5.03
2022-08-24T00:29:07.890Z,5.45
2022-08-24T00:34:09.648Z,4.60
2022-08-24T00:39:11.337Z,4.80
2022-08-24T00:44:14.368Z,4.93
2022-08-24T00:49:21.801Z,4.40
2022-08-24T00:54:26.916Z,4.78
2022-08-24T00:59:34.062Z,4.30
2022-08-24T01:04:39.420Z,4.43
2022-08-24T01:09:40.828Z,4.00
2022-08-24T01:14:42.437Z,4.55
2022-08-24T01:19:45.974Z,4.53
2022-08-24T01:24:47.841Z,3.83
2022-08-24T01:29:50.098Z,3.70
2022-08-24T01:34:51.759Z,3.60
2022-08-24T01:39:55.615Z,3.38
2022-08-24T01:44:57.793Z,3.55
2022-08-24T01:49:59.219Z,3.58
2022-08-24T01:55:00.590Z,3.33
2022-08-24T02:00:02.545Z,3.17
2022-08-24T02:05:04.245Z,3.72
2022-08-24T02:10:06.957Z,3.40
2022-08-24T02:15:08.730Z,3.13
2022-08-24T02:20:11.027Z,3.28
2022-08-24T02:25:14.181Z,3.75
2022-08-24T02:30:16.185Z,3.67
2022-08-24T02:35:17.583Z,3.47
2022-08-24T02:40:19.080Z,3.38
2022-08-24T02:45:20.555Z,3.60
2022-08-24T02:50:22.068Z,3.92
2022-08-24T02:55:23.501Z,3.70
2022-08-24T03:00:25.110Z,4.13
2022-08-24T03:05:26.612Z,4.20
2022-08-24T03:10:28.255Z,4.10
2022-08-24T03:15:29.996Z,4.30
2022-08-24T03:20:31.556Z,4.30
2022-08-24T03:25:32.984Z,4.50
2022-08-24T03:30:34.761Z,4.97
2022-08-24T03:35:36.226Z,4.68
2022-08-24T03:40:37.650Z,4.20
2022-08-24T03:45:39.179Z,4.72
2022-08-24T03:50:40.655Z,4.88
2022-08-24T03:55:42.070Z,4.43
2022-08-24T04:00:43.576Z,5.05
2022-08-24T04:05:45.010Z,5.20
2022-08-24T04:10:47.399Z,5.30
2022-08-24T04:15:51.523Z,5.85
2022-08-24T04:20:53.041Z,5.40
2022-08-24T04:25:54.477Z,5.32
2022-08-24T04:30:57.223Z,5.40
2022-08-24T04:35:58.846Z,5.63
2022-08-24T04:41:00.503Z,5.68
2022-08-24T04:46:05.220Z,6.00
2022-08-24T04:51:11.066Z,5.30
2022-08-24T04:56:17.776Z,5.87
2022-08-24T05:01:24.049Z,6.30
2022-08-24T05:06:27.028Z,7.35
2022-08-24T05:11:29.064Z,6.72
2022-08-24T05:16:32.492Z,7.07
2022-08-24T05:21:34.119Z,7.68
2022-08-24T05:26:35.622Z,7.65
2022-08-24T05:31:37.348Z,8.95
2022-08-24T05:36:39.799Z,9.45
2022-08-24T05:41:56.362Z,8.38
2022-08-24T05:46:58.681Z,9.73
2022-08-24T05:52:00.203Z,9.98
2022-08-24T05:57:05.054Z,10.23
2022-08-24T06:02:07.696Z,8.15
2022-08-24T06:07:10.226Z,8.57
2022-08-24T06:12:12.157Z,8.48
2022-08-24T06:17:13.713Z,7.97
2022-08-24T06:22:15.285Z,7.70
2022-08-24T06:27:23.618Z,7.32
2022-08-24T06:32:25.847Z,7.20
2022-08-24T06:37:29.212Z,6.97
2022-08-24T06:42:31.810Z,7.60
2022-08-24T06:47:33.266Z,6.10
2022-08-24T06:52:35.726Z,6.13
2022-08-24T06:57:37.205Z,5.88
2022-08-24T07:02:38.945Z,6.07
2022-08-24T07:07:40.417Z,5.70
2022-08-24T07:12:41.907Z,6.72
2022-08-24T07:17:43.347Z,5.57
2022-08-24T07:22:44.909Z,6.38
2022-08-24T07:27:46.437Z,5.78
2022-08-24T07:32:47.925Z,4.70
2022-08-24T07:37:50.340Z,5.20
2022-08-24T07:42:55.223Z,4.82
2022-08-24T07:48:04.982Z,6.47
2022-08-24T07:53:09.777Z,7.95
2022-08-24T07:58:13.825Z,9.07
2022-08-24T08:03:15.370Z,6.80
2022-08-24T08:08:16.791Z,8.93
2022-08-24T08:13:18.607Z,7.63
2022-08-24T08:18:20.112Z,7.95
2022-08-24T08:23:40.731Z,6.35
2022-08-24T08:28:44.949Z,5.03
2022-08-24T08:33:46.981Z,3.67
2022-08-24T08:38:48.460Z,4.45
2022-08-24T08:44:22.038Z,5.47
2022-08-24T08:49:26.476Z,5.47
2022-08-24T08:54:43.727Z,6.10
2022-08-24T08:59:45.843Z,6.22
2022-08-24T09:05:10.346Z,7.45
2022-08-24T09:10:17.874Z,5.88
2022-08-24T09:15:37.849Z,7.43
2022-08-24T09:20:42.322Z,5.78
2022-08-24T09:26:18.596Z,4.97
2022-08-24T09:31:20.672Z,5.97
2022-08-24T09:36:40.511Z,5.90
2022-08-24T09:42:00.328Z,4.90
2022-08-24T09:47:12.444Z,4.70
2022-08-24T09:52:31.760Z,3.03
2022-08-24T09:58:08.981Z,4.47
2022-08-24T10:03:21.774Z,2.90
2022-08-24T10:08:55.256Z,2.90
2022-08-24T10:13:59.872Z,4.20
2022-08-24T10:19:07.446Z,3.38
2022-08-24T10:24:29.973Z,3.40
2022-08-24T10:29:34.646Z,3.17
2022-08-24T10:34:51.462Z,2.65
2022-08-24T10:40:00.057Z,2.55
2022-08-24T10:45:14.625Z,2.47
2022-08-24T10:50:40.850Z,2.10
2022-08-24T10:55:42.569Z,2.25
2022-08-24T11:00:44.077Z,2.60
2022-08-24T11:05:48.064Z,2.17
2022-08-24T11:11:06.934Z,1.92
2022-08-24T11:16:08.399Z,2.30
2022-08-24T11:21:10.000Z,2.22
2022-08-24T11:26:21.928Z,1.95
2022-08-24T11:31:35.591Z,2.45
2022-08-24T11:36:38.530Z,1.55
2022-08-24T11:41:53.014Z,1.98
2022-08-24T11:46:54.601Z,2.08
2022-08-24T11:52:15.774Z,1.98
2022-08-24T11:57:21.113Z,2.75
2022-08-24T12:02:41.329Z,2.10
2022-08-24T12:08:03.260Z,2.30
2022-08-24T12:13:21.102Z,2.28
2022-08-24T12:18:22.707Z,2.45
2022-08-24T12:23:37.312Z,2.50
2022-08-24T12:28:54.307Z,2.30
2022-08-24T12:33:57.594Z,2.73
2022-08-24T12:39:10.781Z,2.70
2022-08-24T12:44:14.206Z,2.78
2022-08-24T12:49:23.690Z,2.50
2022-08-24T12:54:27.911Z,2.40
2022-08-24T12:59:30.254Z,2.38
2022-08-24T13:04:38.018Z,2.30
2022-08-24T13:09:41.525Z,2.15
2022-08-24T13:14:45.186Z,2.15
2022-08-24T13:19:47.014Z,2.55
2022-08-24T13:24:58.199Z,1.80
2022-08-24T13:30:19.502Z,2.10
2022-08-24T13:35:36.100Z,1.92
2022-08-24T13:40:44.159Z,1.92
2022-08-24T13:45:50.937Z,2.03
2022-08-24T13:51:04.551Z,1.80
2022-08-24T13:56:12.137Z,1.85
2022-08-24T14:01:22.939Z,1.80
2022-08-24T14:06:47.158Z,1.50
2022-08-24T14:11:48.723Z,1.52
2022-08-24T14:17:19.403Z,1.90
2022-08-24T14:22:30.073Z,1.80
2022-08-24T14:27:34.695Z,1.73
2022-08-24T14:32:39.809Z,1.95
2022-08-24T14:37:59.880Z,2.10
2022-08-24T14:43:17.419Z,1.80
2022-08-24T14:48:39.670Z,1.83
2022-08-24T14:53:47.229Z,1.88
2022-08-24T14:58:55.622Z,2.25
2022-08-24T15:03:57.013Z,2.30
2022-08-24T15:09:17.370Z,2.40
2022-08-24T15:14:24.888Z,2.85
2022-08-24T15:19:35.182Z,3.22
2022-08-24T15:24:36.757Z,3.25
2022-08-24T15:29:47.161Z,3.67
2022-08-24T15:34:53.141Z,3.88
2022-08-24T15:39:54.689Z,3.28
2022-08-24T15:44:59.659Z,3.70
2022-08-24T15:50:01.206Z,4.43
2022-08-24T15:55:03.791Z,4.85
2022-08-24T16:00:08.379Z,3.72
2022-08-24T16:05:25.489Z,3.35
2022-08-24T16:10:31.627Z,3.13
2022-08-24T16:15:33.586Z,3.25
2022-08-24T16:20:35.832Z,2.65
2022-08-24T16:25:43.597Z,2.42
2022-08-24T16:30:46.682Z,2.40
2022-08-24T16:35:50.404Z,2.60
2022-08-24T16:40:52.160Z,2.33
2022-08-24T16:45:54.486Z,2.03
2022-08-24T16:50:57.125Z,2.30
2022-08-24T16:55:58.601Z,2.17
2022-08-24T17:01:00.811Z,2.40
2022-08-24T17:06:02.342Z,2.35
2022-08-24T17:11:04.997Z,2.20
2022-08-24T17:16:07.126Z,2.10
2022-08-24T17:21:09.586Z,1.73
2022-08-24T17:26:21.005Z,1.45
2022-08-24T17:31:29.096Z,1.40
2022-08-24T17:36:32.235Z,1.60
2022-08-24T17:41:34.753Z,1.48
2022-08-24T17:46:37.234Z,1.30
2022-08-24T17:51:39.065Z,1.48
2022-08-24T17:56:42.816Z,1.30
2022-08-24T18:01:44.763Z,1.50
2022-08-24T18:06:46.526Z,1.70
2022-08-24T18:11:48.356Z,2.08
2022-08-24T18:16:54.175Z,2.20
2022-08-24T18:27:01.720Z,2.60
2022-08-24T18:32:03.488Z,2.47
2022-08-24T18:37:05.117Z,2.95
2022-08-24T18:42:07.729Z,3.13
2022-08-24T18:47:09.319Z,3.60
2022-08-24T18:52:13.256Z,4.93
2022-08-24T18:57:14.973Z,4.22
2022-08-24T19:02:36.040Z,5.97
2022-08-24T19:07:39.049Z,6.25
2022-08-24T19:12:42.411Z,7.03
2022-08-24T19:17:45.033Z,8.32
2022-08-24T19:22:47.539Z,8.15
2022-08-24T19:27:53.557Z,8.00
2022-08-24T19:32:56.511Z,8.20
2022-08-24T19:37:58.550Z,8.82
2022-08-24T19:43:01.706Z,8.75
2022-08-24T19:48:04.447Z,8.43
2022-08-24T19:53:06.169Z,9.23
2022-08-24T19:58:20.030Z,9.27
2022-08-24T20:03:25.150Z,8.32
2022-08-24T20:08:26.612Z,7.82
2022-08-24T20:13:28.488Z,7.95
2022-08-24T20:18:31.886Z,8.10
2022-08-24T20:23:33.611Z,7.75
2022-08-24T20:28:54.085Z,7.47
2022-08-24T20:33:57.194Z,6.50
2022-08-24T20:39:00.169Z,6.25
2022-08-24T20:44:02.172Z,6.85
2022-08-24T20:49:05.688Z,5.80
2022-08-24T20:59:52.618Z,7.57
2022-08-24T21:04:54.060Z,6.70
2022-08-24T21:09:57.382Z,6.75
2022-08-24T21:14:58.791Z,5.95
2022-08-24T21:20:00.277Z,5.45
2022-08-24T21:25:01.853Z,5.70
2022-08-24T21:30:03.865Z,6.05
2022-08-24T21:35:05.505Z,5.63
2022-08-24T21:40:07.744Z,7.03
2022-08-24T21:45:09.458Z,6.55
2022-08-24T21:50:11.724Z,7.40
2022-08-24T21:55:15.164Z,7.10
2022-08-24T22:00:21.743Z,7.38
2022-08-24T22:05:40.491Z,6.97
2022-08-24T22:10:43.021Z,7.90
2022-08-24T22:15:46.170Z,5.90
2022-08-24T22:20:47.648Z,6.53
2022-08-24T22:25:53.595Z,6.93
2022-08-24T22:30:56.390Z,7.65
2022-08-24T22:35:57.821Z,6.60
2022-08-24T22:40:59.215Z,7.25
2022-08-24T22:46:00.649Z,7.80
2022-08-24T22:51:02.135Z,6.72
2022-08-24T22:56:03.842Z,6.65
2022-08-24T23:01:05.297Z,7.72
2022-08-24T23:06:06.828Z,6.85
2022-08-24T23:11:08.291Z,7.10
2022-08-24T23:16:11.256Z,7.20
2022-08-24T23:21:13.534Z,6.55
2022-08-24T23:26:18.455Z,8.30
2022-08-24T23:31:21.747Z,7.20
2022-08-24T23:36:24.877Z,8.55
2022-08-24T23:41:31.162Z,6.80
2022-08-24T23:46:32.655Z,8.32
2022-08-24T23:51:34.487Z,8.13
2022-08-24T23:56:36.986Z,8.35
